createdAt,value
2019-01-26T00:00:11.246Z,33.67
2019-01-26T00:02:41.189Z,33.83
2019-01-26T00:05:11.295Z,28.93
2019-01-26T00:07:41.067Z,34.70
2019-01-26T00:10:10.857Z,31.30
2019-01-26T00:12:41.009Z,28.80
2019-01-26T00:15:13.423Z,31.27
2019-01-26T00:17:47.523Z,28.47
2019-01-26T00:20:22.862Z,31.50
2019-01-26T00:22:58.359Z,31.53
2019-01-26T00:25:32.569Z,33.20
2019-01-26T00:28:03.810Z,31.70
2019-01-26T00:33:27.562Z,30.90
2019-01-26T00:36:21.340Z,27.90
2019-01-26T00:38:52.078Z,28.67
2019-01-26T00:41:22.810Z,31.10
2019-01-26T00:43:55.996Z,28.07
2019-01-26T00:46:28.552Z,29.87
2019-01-26T00:48:58.698Z,30.67
2019-01-26T00:51:28.559Z,25.57
2019-01-26T00:53:57.397Z,30.37
2019-01-26T00:56:27.448Z,24.03
2019-01-26T00:58:58.290Z,29.60
2019-01-26T01:01:27.227Z,31.10
2019-01-26T01:03:56.626Z,31.63
2019-01-26T01:06:29.221Z,25.53
2019-01-26T01:09:00.074Z,25.40
2019-01-26T01:11:28.861Z,28.27
2019-01-26T01:13:57.739Z,28.23
2019-01-26T01:16:26.644Z,25.20
2019-01-26T01:18:56.271Z,24.07
2019-01-26T01:21:26.865Z,27.87
2019-01-26T01:23:57.397Z,21.67
2019-01-26T01:26:32.010Z,27.50
2019-01-26T01:29:02.450Z,26.43
2019-01-26T01:31:31.337Z,23.20
2019-01-26T01:34:01.086Z,27.23
2019-01-26T01:36:30.143Z,24.10
2019-01-26T01:39:00.641Z,24.17
2019-01-26T01:41:30.729Z,26.03
2019-01-26T01:43:59.523Z,22.50
2019-01-26T01:46:28.785Z,26.30
2019-01-26T01:48:57.669Z,25.03
2019-01-26T01:51:28.123Z,22.73
2019-01-26T01:53:56.882Z,23.77
2019-01-26T01:56:25.656Z,28.40
2019-01-26T01:58:56.472Z,23.47
2019-01-26T02:01:25.076Z,23.57
2019-01-26T02:03:58.774Z,21.17
2019-01-26T02:06:49.714Z,22.57
2019-01-26T02:09:19.925Z,26.70
2019-01-26T02:11:51.669Z,23.70
2019-01-26T02:14:21.991Z,25.20
2019-01-26T02:16:51.378Z,19.70
2019-01-26T02:19:20.204Z,20.07
2019-01-26T02:21:49.164Z,20.07
2019-01-26T02:24:17.950Z,18.93
2019-01-26T02:26:49.062Z,23.23
2019-01-26T02:29:17.592Z,24.00
2019-01-26T02:31:46.384Z,21.30
2019-01-26T02:34:15.281Z,23.00
2019-01-26T02:36:44.170Z,21.67
2019-01-26T02:39:12.966Z,21.00
2019-01-26T02:41:41.828Z,21.40
2019-01-26T02:44:10.644Z,20.27
2019-01-26T02:46:39.641Z,19.10
2019-01-26T02:49:08.518Z,19.00
2019-01-26T02:51:37.320Z,23.27
2019-01-26T02:54:06.302Z,18.93
2019-01-26T02:56:35.206Z,21.77
2019-01-26T02:59:04.294Z,20.47
2019-01-26T03:01:33.181Z,21.57
2019-01-26T03:04:02.478Z,19.03
2019-01-26T03:06:31.395Z,20.63
2019-01-26T03:09:02.217Z,20.50
2019-01-26T03:11:31.009Z,21.17
2019-01-26T03:13:59.860Z,18.80
2019-01-26T03:16:28.683Z,19.53
2019-01-26T03:18:57.440Z,19.93
2019-01-26T03:21:26.333Z,17.33
2019-01-26T03:23:55.131Z,19.03
2019-01-26T03:26:24.320Z,19.00
2019-01-26T03:28:53.226Z,16.73
2019-01-26T03:31:21.915Z,19.97
2019-01-26T03:33:50.806Z,17.60
2019-01-26T03:36:19.700Z,17.57
2019-01-26T03:38:48.591Z,19.83
2019-01-26T03:41:17.338Z,19.00
2019-01-26T03:43:46.142Z,21.20
2019-01-26T03:46:14.843Z,18.13
2019-01-26T03:48:44.152Z,24.13
2019-01-26T03:51:12.892Z,18.37
2019-01-26T03:53:41.725Z,19.23
2019-01-26T03:56:10.620Z,19.70
2019-01-26T03:58:42.367Z,18.93
2019-01-26T04:01:11.268Z,20.67
2019-01-26T04:03:41.697Z,19.97
2019-01-26T04:06:10.546Z,23.30
2019-01-26T04:08:39.369Z,20.27
2019-01-26T04:11:08.237Z,19.20
2019-01-26T04:13:37.150Z,22.50
2019-01-26T04:16:06.258Z,22.47
2019-01-26T04:18:35.146Z,20.33
2019-01-26T04:21:04.026Z,20.20
2019-01-26T04:23:32.919Z,22.27
2019-01-26T04:26:01.689Z,19.37
2019-01-26T04:28:30.491Z,19.33
2019-01-26T04:30:59.393Z,20.67
2019-01-26T04:33:28.276Z,18.27
2019-01-26T04:35:57.167Z,20.90
2019-01-26T04:38:27.252Z,18.03
2019-01-26T04:40:56.118Z,16.23
2019-01-26T04:43:25.364Z,19.27
2019-01-26T04:45:55.125Z,20.43
2019-01-26T04:48:23.960Z,19.13
2019-01-26T04:50:52.967Z,20.93
2019-01-26T04:53:21.763Z,20.50
2019-01-26T04:55:50.526Z,17.97
2019-01-26T04:58:19.445Z,14.90
2019-01-26T05:00:48.435Z,15.50
2019-01-26T05:03:18.549Z,14.43
2019-01-26T05:05:47.353Z,14.67
2019-01-26T05:08:16.328Z,16.70
2019-01-26T05:10:45.078Z,16.67
2019-01-26T05:13:33.248Z,13.40
2019-01-26T05:16:02.252Z,12.83
2019-01-26T05:18:31.147Z,16.97
2019-01-26T05:21:00.031Z,16.30
2019-01-26T05:23:29.925Z,14.37
2019-01-26T05:25:58.737Z,13.27
2019-01-26T05:28:27.535Z,11.60
2019-01-26T05:30:56.417Z,12.83
2019-01-26T05:33:26.655Z,14.37
2019-01-26T05:36:14.879Z,12.53
2019-01-26T05:38:45.289Z,13.30
2019-01-26T05:41:33.470Z,14.10
2019-01-26T05:44:02.243Z,9.37
2019-01-26T05:46:31.104Z,13.60
2019-01-26T05:49:00.018Z,10.57
2019-01-26T05:51:28.788Z,10.10
2019-01-26T05:53:57.570Z,14.13
2019-01-26T05:56:26.686Z,10.57
2019-01-26T05:58:55.461Z,11.80
2019-01-26T06:01:24.580Z,10.03
2019-01-26T06:03:53.258Z,10.47
2019-01-26T06:06:22.021Z,10.57
2019-01-26T06:08:50.750Z,10.17
2019-01-26T06:11:38.976Z,8.47
2019-01-26T06:14:07.732Z,11.17
2019-01-26T06:16:38.531Z,10.83
2019-01-26T06:19:07.494Z,10.67
2019-01-26T06:21:36.383Z,11.23
2019-01-26T06:24:05.684Z,13.60
2019-01-26T06:26:34.578Z,10.53
2019-01-26T06:29:03.468Z,9.87
2019-01-26T06:31:33.998Z,9.60
2019-01-26T06:34:02.884Z,11.83
2019-01-26T06:36:31.575Z,14.37
2019-01-26T06:39:04.576Z,15.23
2019-01-26T06:41:35.113Z,10.37
2019-01-26T06:44:03.977Z,12.40
2019-01-26T06:46:34.982Z,12.23
2019-01-26T06:49:04.091Z,11.77
2019-01-26T06:51:32.901Z,11.57
2019-01-26T06:54:02.201Z,14.83
2019-01-26T06:56:31.090Z,14.50
2019-01-26T06:58:59.984Z,16.77
2019-01-26T07:01:30.735Z,13.37
2019-01-26T07:03:59.401Z,13.53
2019-01-26T07:06:29.961Z,14.00
2019-01-26T07:08:58.715Z,15.27
2019-01-26T07:11:27.587Z,24.03
2019-01-26T07:14:15.853Z,23.67
2019-01-26T07:16:44.721Z,10.23
2019-01-26T07:19:16.402Z,12.53
2019-01-26T07:21:45.388Z,10.93
2019-01-26T07:24:16.043Z,9.03
2019-01-26T07:26:44.811Z,10.83
2019-01-26T07:29:13.674Z,8.80
2019-01-26T07:31:42.669Z,8.60
2019-01-26T07:34:11.688Z,10.57
2019-01-26T07:36:40.581Z,9.73
2019-01-26T07:39:10.802Z,8.60
2019-01-26T07:41:39.702Z,10.93
2019-01-26T07:44:08.381Z,9.53
2019-01-26T07:46:37.550Z,8.37
2019-01-26T07:49:06.361Z,10.90
2019-01-26T07:51:39.863Z,7.73
2019-01-26T07:54:13.420Z,8.00
2019-01-26T07:56:42.756Z,7.93
2019-01-26T07:59:14.522Z,9.10
2019-01-26T08:01:46.276Z,11.27
2019-01-26T08:04:15.050Z,7.20
2019-01-26T08:06:44.060Z,9.23
2019-01-26T08:09:12.958Z,8.17
2019-01-26T08:11:42.489Z,6.80
2019-01-26T08:14:14.620Z,7.40
2019-01-26T08:16:43.517Z,7.00
2019-01-26T08:19:12.619Z,9.07
2019-01-26T08:21:41.600Z,7.17
2019-01-26T08:24:10.701Z,6.80
2019-01-26T08:26:39.673Z,6.57
2019-01-26T08:29:08.417Z,9.77
2019-01-26T08:31:40.029Z,8.20
2019-01-26T08:34:08.791Z,6.70
2019-01-26T08:36:42.401Z,7.00
2019-01-26T08:39:11.286Z,6.87
2019-01-26T08:41:40.303Z,6.80
2019-01-26T08:44:09.068Z,7.40
2019-01-26T08:46:38.992Z,7.43
2019-01-26T08:49:08.739Z,7.30
2019-01-26T08:51:37.733Z,8.67
2019-01-26T08:54:11.923Z,7.40
2019-01-26T08:56:41.244Z,7.97
2019-01-26T08:59:11.727Z,6.77
2019-01-26T09:01:40.512Z,8.30
2019-01-26T09:04:10.973Z,7.03
2019-01-26T09:06:39.835Z,7.60
2019-01-26T09:09:09.592Z,7.00
2019-01-26T09:11:38.748Z,7.77
2019-01-26T09:14:10.042Z,8.00
2019-01-26T09:16:38.902Z,8.00
2019-01-26T09:19:10.821Z,6.20
2019-01-26T09:21:39.756Z,6.97
2019-01-26T09:24:08.650Z,8.07
2019-01-26T09:26:37.550Z,7.27
2019-01-26T09:29:12.076Z,7.83
2019-01-26T09:31:42.786Z,10.13
2019-01-26T09:34:12.582Z,7.17
2019-01-26T09:36:41.730Z,9.23
2019-01-26T09:39:31.813Z,9.53
2019-01-26T09:42:01.588Z,9.77
2019-01-26T09:44:30.340Z,8.33
2019-01-26T09:46:59.279Z,7.00
2019-01-26T09:49:33.985Z,12.23
2019-01-26T09:52:02.902Z,29.80
2019-01-26T09:54:31.972Z,29.70
2019-01-26T09:57:00.993Z,25.03
2019-01-26T09:59:29.894Z,38.57
2019-01-26T10:01:58.908Z,33.20
2019-01-26T10:04:27.673Z,13.23
2019-01-26T10:06:56.338Z,16.63
2019-01-26T10:09:26.261Z,8.90
2019-01-26T10:11:55.050Z,10.33
2019-01-26T10:14:23.815Z,6.70
2019-01-26T10:16:52.600Z,6.90
2019-01-26T10:19:24.411Z,7.13
2019-01-26T10:21:55.459Z,7.37
2019-01-26T10:24:25.855Z,7.20
2019-01-26T10:26:58.343Z,7.80
2019-01-26T10:29:28.953Z,7.53
2019-01-26T10:31:58.257Z,6.87
2019-01-26T10:34:28.729Z,8.53
2019-01-26T10:37:01.276Z,8.47
2019-01-26T10:39:33.860Z,6.87
2019-01-26T10:42:07.901Z,6.93
2019-01-26T10:44:37.171Z,7.37
2019-01-26T10:47:06.845Z,7.00
2019-01-26T10:51:10.710Z,6.50
2019-01-26T10:52:09.741Z,9.77
2019-01-26T10:54:38.554Z,9.13
2019-01-26T10:57:13.587Z,8.13
2019-01-26T10:59:51.657Z,10.37
2019-01-26T11:02:24.806Z,9.33
2019-01-26T11:04:56.275Z,8.13
2019-01-26T11:07:25.015Z,10.37
2019-01-26T11:09:53.912Z,7.67
2019-01-26T11:12:22.678Z,8.30
2019-01-26T11:14:51.482Z,7.83
2019-01-26T11:17:28.875Z,8.67
2019-01-26T11:19:58.452Z,6.80
2019-01-26T11:22:27.481Z,7.37
2019-01-26T11:24:57.735Z,8.13
2019-01-26T11:27:33.576Z,11.87
2019-01-26T11:30:02.690Z,11.10
2019-01-26T11:32:36.965Z,10.80
2019-01-26T11:35:09.684Z,8.27
2019-01-26T11:37:43.510Z,11.03
2019-01-26T11:40:17.944Z,12.30
2019-01-26T11:42:55.760Z,10.20
2019-01-26T11:45:31.932Z,9.27
2019-01-26T11:48:05.334Z,13.30
2019-01-26T11:50:40.143Z,11.93
2019-01-26T11:53:09.871Z,9.83
2019-01-26T11:55:46.336Z,13.63
2019-01-26T11:58:15.192Z,22.43
2019-01-26T12:00:49.010Z,13.47
2019-01-26T12:03:23.263Z,22.43
2019-01-26T12:05:56.542Z,11.83
2019-01-26T12:08:32.598Z,24.23
2019-01-26T12:11:02.881Z,14.20
2019-01-26T12:13:34.680Z,12.10
2019-01-26T12:16:06.523Z,21.90
2019-01-26T12:18:35.385Z,11.77
2019-01-26T12:21:04.505Z,18.60
2019-01-26T12:23:35.364Z,10.10
2019-01-26T12:26:06.816Z,9.10
2019-01-26T12:28:37.821Z,7.83
2019-01-26T12:31:18.126Z,6.17
2019-01-26T12:33:49.613Z,7.50
2019-01-26T12:36:20.675Z,5.87
2019-01-26T12:38:52.235Z,4.17
2019-01-26T12:41:21.154Z,5.77
2019-01-26T12:43:50.029Z,4.83
2019-01-26T12:46:20.775Z,6.13
2019-01-26T12:48:52.329Z,4.93
2019-01-26T12:51:21.425Z,6.67
2019-01-26T12:53:57.866Z,5.17
2019-01-26T12:56:26.785Z,8.37
2019-01-26T12:58:55.671Z,7.37
2019-01-26T13:01:24.563Z,5.80
2019-01-26T13:03:56.296Z,6.63
2019-01-26T13:06:25.274Z,7.10
2019-01-26T13:08:54.217Z,5.37
2019-01-26T13:11:24.633Z,7.13
2019-01-26T13:13:54.349Z,7.47
2019-01-26T13:16:29.070Z,7.07
2019-01-26T13:19:01.343Z,6.23
2019-01-26T13:21:33.301Z,6.23
2019-01-26T13:24:02.375Z,7.17
2019-01-26T13:26:35.410Z,5.47
2019-01-26T13:29:06.940Z,7.07
2019-01-26T13:34:07.405Z,6.17
2019-01-26T13:36:36.277Z,9.07
2019-01-26T13:39:07.802Z,9.50
2019-01-26T13:41:36.807Z,6.33
2019-01-26T13:44:06.042Z,7.33
2019-01-26T13:49:05.950Z,7.17
2019-01-26T13:51:34.839Z,8.60
2019-01-26T13:54:04.254Z,8.73
2019-01-26T13:56:33.338Z,10.60
2019-01-26T13:59:02.431Z,10.60
2019-01-26T14:01:31.336Z,9.37
2019-01-26T14:04:02.875Z,10.63
2019-01-26T14:06:31.850Z,10.23
2019-01-26T14:09:00.769Z,12.57
2019-01-26T14:11:30.355Z,7.97
2019-01-26T14:13:59.154Z,11.90
2019-01-26T14:16:28.046Z,11.77
2019-01-26T14:18:58.370Z,14.13
2019-01-26T14:21:27.265Z,9.83
2019-01-26T14:23:56.155Z,12.47
2019-01-26T14:26:26.731Z,8.80
2019-01-26T14:28:57.829Z,10.60
2019-01-26T14:31:29.627Z,8.83
2019-01-26T14:34:00.190Z,8.00
2019-01-26T14:36:29.668Z,6.47
2019-01-26T14:38:59.250Z,8.40
2019-01-26T14:41:31.170Z,11.03
2019-01-26T14:44:01.436Z,8.83
2019-01-26T14:46:33.311Z,7.37
2019-01-26T14:49:02.572Z,7.70
2019-01-26T14:51:33.157Z,10.90
2019-01-26T14:54:03.132Z,7.00
2019-01-26T14:56:34.893Z,9.57
2019-01-26T14:59:06.634Z,7.53
2019-01-26T15:01:37.486Z,7.70
2019-01-26T15:04:12.649Z,7.07
2019-01-26T15:06:41.789Z,6.80
2019-01-26T15:09:15.481Z,7.63
2019-01-26T15:11:44.605Z,9.60
2019-01-26T15:14:13.683Z,6.80
2019-01-26T15:16:45.255Z,6.70
2019-01-26T15:19:14.143Z,11.57
2019-01-26T15:21:49.883Z,6.23
2019-01-26T15:24:18.659Z,7.63
2019-01-26T15:26:47.469Z,9.70
2019-01-26T15:29:16.437Z,13.47
2019-01-26T15:31:45.338Z,16.90
2019-01-26T15:34:14.357Z,13.27
2019-01-26T15:36:44.751Z,18.57
2019-01-26T15:39:13.664Z,19.33
2019-01-26T15:41:47.952Z,17.80
2019-01-26T15:44:18.333Z,17.73
2019-01-26T15:46:47.618Z,19.20
2019-01-26T15:49:16.614Z,22.53
2019-01-26T15:51:45.600Z,16.00
2019-01-26T15:54:14.566Z,16.63
2019-01-26T15:56:46.116Z,17.30
2019-01-26T15:59:15.165Z,17.17
2019-01-26T16:01:45.742Z,16.20
2019-01-26T16:04:14.866Z,18.40
2019-01-26T16:06:44.670Z,16.80
2019-01-26T16:09:15.305Z,18.60
2019-01-26T16:11:45.830Z,18.87
2019-01-26T16:14:14.650Z,17.83
2019-01-26T16:16:44.194Z,22.43
2019-01-26T16:19:13.735Z,18.10
2019-01-26T16:21:42.540Z,20.57
2019-01-26T16:24:11.514Z,23.77
2019-01-26T16:26:40.661Z,21.73
2019-01-26T16:29:09.908Z,22.77
2019-01-26T16:31:38.698Z,24.20
2019-01-26T16:34:07.594Z,24.20
2019-01-26T16:36:38.751Z,23.83
2019-01-26T16:39:12.462Z,22.20
2019-01-26T16:41:41.309Z,26.23
2019-01-26T16:44:14.226Z,22.40
2019-01-26T16:46:43.107Z,21.93
2019-01-26T16:49:12.408Z,25.00
2019-01-26T16:51:42.956Z,23.17
2019-01-26T16:54:12.701Z,22.80
2019-01-26T16:56:41.960Z,20.60
2019-01-26T16:59:11.137Z,22.97
2019-01-26T17:01:40.121Z,24.97
2019-01-26T17:04:27.142Z,20.47
2019-01-26T17:07:00.445Z,23.13
2019-01-26T17:09:31.175Z,20.57
2019-01-26T17:12:02.886Z,20.07
2019-01-26T17:14:32.215Z,21.47
2019-01-26T17:17:01.319Z,23.93
2019-01-26T17:19:31.945Z,21.13
2019-01-26T17:22:00.643Z,21.60
2019-01-26T17:24:29.537Z,20.20
2019-01-26T17:26:58.237Z,23.17
2019-01-26T17:29:27.508Z,21.80
2019-01-26T17:32:05.670Z,20.43
2019-01-26T17:34:43.327Z,21.80
2019-01-26T17:37:12.523Z,22.30
2019-01-26T17:39:41.414Z,21.93
2019-01-26T17:42:12.951Z,21.13
2019-01-26T17:44:41.707Z,21.83
2019-01-26T17:47:13.986Z,22.30
2019-01-26T17:49:42.657Z,18.30
2019-01-26T17:52:13.448Z,22.17
2019-01-26T17:54:45.648Z,22.67
2019-01-26T17:57:14.502Z,20.23
2019-01-26T17:59:44.703Z,23.60
2019-01-26T18:02:13.798Z,23.73
2019-01-26T18:04:42.700Z,22.57
2019-01-26T18:07:11.488Z,22.43
2019-01-26T18:09:42.939Z,23.10
2019-01-26T18:12:12.050Z,25.93
2019-01-26T18:14:41.960Z,25.57
2019-01-26T18:17:13.417Z,21.97
2019-01-26T18:19:42.618Z,23.93
2019-01-26T18:22:14.570Z,25.87
2019-01-26T18:24:52.271Z,24.13
2019-01-26T18:27:21.363Z,22.77
2019-01-26T18:29:50.318Z,23.93
2019-01-26T18:32:19.227Z,22.13
2019-01-26T18:34:48.911Z,21.37
2019-01-26T18:37:18.756Z,24.53
2019-01-26T18:39:50.760Z,23.03
2019-01-26T18:42:19.606Z,22.63
2019-01-26T18:44:48.621Z,22.73
2019-01-26T18:47:19.358Z,21.50
2019-01-26T18:49:53.029Z,24.00
2019-01-26T18:52:30.544Z,25.13
2019-01-26T18:55:05.229Z,23.27
2019-01-26T18:57:31.500Z,22.77
2019-01-26T19:00:00.191Z,23.10
2019-01-26T19:02:35.638Z,21.23
2019-01-26T19:05:07.467Z,22.43
2019-01-26T19:07:36.565Z,20.77
2019-01-26T19:10:10.710Z,18.47
2019-01-26T19:12:41.286Z,19.97
2019-01-26T19:15:13.490Z,19.57
2019-01-26T19:17:45.357Z,17.47
2019-01-26T19:20:19.446Z,21.40
2019-01-26T19:22:49.903Z,18.97
2019-01-26T19:25:25.994Z,18.20
2019-01-26T19:27:55.129Z,17.10
2019-01-26T19:30:25.399Z,19.27
2019-01-26T19:32:56.998Z,16.70
2019-01-26T19:35:28.838Z,20.23
2019-01-26T19:38:01.879Z,16.43
2019-01-26T19:40:32.635Z,16.50
2019-01-26T19:43:05.194Z,13.67
2019-01-26T19:45:34.532Z,14.70
2019-01-26T19:48:05.479Z,16.17
2019-01-26T19:50:37.246Z,14.27
2019-01-26T19:53:12.048Z,15.77
2019-01-26T19:55:52.391Z,14.53
2019-01-26T19:58:22.953Z,17.77
2019-01-26T20:00:51.840Z,18.97
2019-01-26T20:03:21.415Z,17.03
2019-01-26T20:05:53.384Z,16.80
2019-01-26T20:08:25.231Z,15.43
2019-01-26T20:10:55.858Z,13.93
2019-01-26T20:13:24.609Z,17.30
2019-01-26T20:15:55.894Z,16.73
2019-01-26T20:18:24.818Z,13.47
2019-01-26T20:20:59.798Z,16.70
2019-01-26T20:23:30.395Z,16.27
2019-01-26T20:26:00.838Z,14.87
2019-01-26T20:28:30.491Z,16.90
2019-01-26T20:30:59.380Z,14.90
2019-01-26T20:33:28.589Z,16.83
2019-01-26T20:36:00.434Z,15.63
2019-01-26T20:38:39.978Z,15.93
2019-01-26T20:41:09.683Z,14.50
2019-01-26T20:43:44.313Z,16.33
2019-01-26T20:46:16.155Z,15.00
2019-01-26T20:48:52.746Z,15.33
2019-01-26T20:51:24.989Z,13.43
2019-01-26T20:54:02.272Z,14.83
2019-01-26T20:56:28.726Z,13.40
2019-01-26T20:59:00.588Z,18.43
2019-01-26T21:01:29.722Z,15.67
2019-01-26T21:03:59.970Z,12.67
2019-01-26T21:06:28.770Z,13.40
2019-01-26T21:08:57.514Z,12.93
2019-01-26T21:11:26.480Z,12.13
2019-01-26T21:13:58.453Z,12.93
2019-01-26T21:16:30.710Z,11.70
2019-01-26T21:19:00.417Z,14.17
2019-01-26T21:21:31.881Z,14.03
2019-01-26T21:24:00.534Z,11.50
2019-01-26T21:26:36.823Z,10.97
2019-01-26T21:29:12.261Z,13.33
2019-01-26T21:31:45.139Z,10.67
2019-01-26T21:34:20.256Z,12.67
2019-01-26T21:36:49.495Z,15.17
2019-01-26T21:39:20.629Z,12.60
2019-01-26T21:41:59.458Z,11.37
2019-01-26T21:44:28.117Z,12.83
2019-01-26T21:47:04.911Z,14.37
2019-01-26T21:49:35.447Z,12.13
2019-01-26T21:52:04.823Z,12.37
2019-01-26T21:54:47.844Z,12.90
2019-01-26T21:57:20.111Z,13.43
2019-01-26T22:00:09.756Z,12.90
2019-01-26T22:02:39.934Z,11.93
2019-01-26T22:05:14.564Z,14.67
2019-01-26T22:07:51.518Z,13.50
2019-01-26T22:10:40.139Z,11.20
2019-01-26T22:13:12.334Z,13.87
2019-01-26T22:15:43.502Z,13.07
2019-01-26T22:18:15.366Z,11.87
2019-01-26T22:20:50.861Z,13.20
2019-01-26T22:23:20.977Z,13.40
2019-01-26T22:25:50.824Z,13.10
2019-01-26T22:28:23.418Z,15.53
2019-01-26T22:30:56.795Z,13.20
2019-01-26T22:33:52.622Z,12.90
2019-01-26T22:36:23.071Z,13.13
2019-01-26T22:38:54.950Z,11.87
2019-01-26T22:41:23.758Z,11.77
2019-01-26T22:43:52.704Z,13.13
2019-01-26T22:46:21.799Z,13.07
2019-01-26T22:48:52.740Z,12.07
2019-01-26T22:51:23.471Z,14.03
2019-01-26T22:53:54.826Z,12.00
2019-01-26T22:56:23.721Z,13.17
2019-01-26T22:58:53.658Z,10.87
2019-01-26T23:01:30.483Z,12.30
2019-01-26T23:04:27.023Z,14.33
2019-01-26T23:07:03.102Z,12.33
2019-01-26T23:09:35.658Z,10.60
2019-01-26T23:12:18.084Z,11.87
2019-01-26T23:15:07.550Z,11.30
2019-01-26T23:17:48.436Z,11.43
2019-01-26T23:20:22.899Z,12.90
2019-01-26T23:23:00.327Z,11.87
2019-01-26T23:25:37.833Z,11.67
2019-01-26T23:28:15.415Z,11.20
2019-01-26T23:31:06.339Z,11.23
2019-01-26T23:33:35.437Z,10.87
2019-01-26T23:36:07.259Z,11.83
2019-01-26T23:38:40.367Z,9.67
2019-01-26T23:41:09.276Z,11.03
2019-01-26T23:43:42.750Z,11.23
2019-01-26T23:46:11.969Z,10.90
2019-01-26T23:48:41.911Z,10.57
2019-01-26T23:51:12.797Z,12.60
2019-01-26T23:53:42.735Z,13.23
2019-01-26T23:56:11.935Z,12.13
2019-01-26T23:58:40.833Z,10.60
